This is the latest recevied weather packets stored in our database for station/object WG7B. If no packets are shown the sender has not sent any weather packets the latest 10 day(s).
| Time | Temp. | Humidity | Pressure | Rain* | Wind** | Luminosity | Snow |
|---|---|---|---|---|---|---|---|
| 1777734931 | 26.11° C | 33% | 1012.9 hPa | 0 mm | - | - | - |
| 1777731944 | 22.78° C | 34% | 1012.3 hPa | 0 mm | - | - | - |
| 1777731320 | 22.22° C | 36% | 1012.2 hPa | 0 mm | - | - | - |
| 1777730733 | 21.67° C | 38% | 1012.1 hPa | 0 mm | - | - | - |
| 1777728940 | 19.44° C | 42% | 1011.6 hPa | 0 mm | - | - | - |
| 1777727729 | 18.33° C | 41% | 1011.5 hPa | 0 mm | - | - | - |
| 1777724724 | 18.33° C | 37% | 1010.9 hPa | 0 mm | - | - | - |
| 1777724118 | 18.89° C | 37% | 1010.6 hPa | 0 mm | - | - | - |
| 1777718129 | 20° C | 32% | 1010.2 hPa | 0 mm | - | - | - |
| 1777710930 | 22.78° C | 27% | 1009.6 hPa | 0 mm | - | - | - |
| 1777709722 | 22.78° C | 27% | 1009.8 hPa | 0 mm | - | - | - |
| 1777707967 | 23.33° C | 27% | 1009.6 hPa | 0 mm | - | - | - |
| 1777705528 | 23.33° C | 26% | 1009.3 hPa | 0 mm | - | - | - |
| 1777703754 | 23.89° C | 26% | 1009.2 hPa | 0 mm | - | - | - |
| 1777700123 | 24.44° C | 25% | 1008.7 hPa | 0 mm | - | - | - |
| 1777698328 | 23.89° C | 26% | 1008.6 hPa | 0 mm | - | - | - |
| 1777693528 | 26.11° C | 24% | 1007.9 hPa | 0 mm | - | - | - |
| 1777688119 | 28.89° C | 20% | 1007.2 hPa | 0 mm | - | - | - |
| 1777686929 | 29.44° C | 20% | 1007.1 hPa | 0 mm | - | - | - |
| 1777685134 | 30.56° C | 20% | 1007.1 hPa | 0 mm | - | - | - |
| 1777677934 | 31.67° C | 20% | 1007.3 hPa | 0 mm | - | - | - |
| 1777669523 | 31.11° C | 23% | 1008.9 hPa | 0 mm | - | - | - |
| 1777666519 | 31.11° C | 23% | 1009.6 hPa | 0 mm | - | - | - |
| 1777665329 | 31.11° C | 23% | 1009.6 hPa | 0 mm | - | - | - |
| 1777659925 | 29.44° C | 26% | 1011.3 hPa | 0 mm | - | - | - |
* Rain latest hour (hover to see other rain measurements)
** Current wind speed in m/s (hover to see current wind gust speed)